sensor_id;sensor_type;location;lat;lon;timestamp;P1;durP1;ratioP1;P2;durP2;ratioP2
71253;SDS011;59019;47.638;18.966;2024-02-23T00:01:04;4.50;;;2.00;;
71253;SDS011;59019;47.638;18.966;2024-02-23T00:03:34;4.60;;;2.00;;
71253;SDS011;59019;47.638;18.966;2024-02-23T00:06:01;4.78;;;2.30;;
71253;SDS011;59019;47.638;18.966;2024-02-23T00:08:29;4.82;;;2.17;;
71253;SDS011;59019;47.638;18.966;2024-02-23T00:10:56;5.43;;;2.17;;
71253;SDS011;59019;47.638;18.966;2024-02-23T00:13:22;4.82;;;2.08;;
71253;SDS011;59019;47.638;18.966;2024-02-23T00:15:48;5.00;;;2.27;;
71253;SDS011;59019;47.638;18.966;2024-02-23T00:18:14;6.65;;;2.83;;
71253;SDS011;59019;47.638;18.966;2024-02-23T00:20:42;5.43;;;2.20;;
71253;SDS011;59019;47.638;18.966;2024-02-23T00:23:09;5.00;;;1.90;;
71253;SDS011;59019;47.638;18.966;2024-02-23T00:25:35;4.30;;;2.00;;
71253;SDS011;59019;47.638;18.966;2024-02-23T00:28:06;5.37;;;2.33;;
71253;SDS011;59019;47.638;18.966;2024-02-23T00:30:33;5.38;;;2.13;;
71253;SDS011;59019;47.638;18.966;2024-02-23T00:32:58;4.57;;;2.00;;
71253;SDS011;59019;47.638;18.966;2024-02-23T00:35:25;4.68;;;2.00;;
71253;SDS011;59019;47.638;18.966;2024-02-23T00:37:52;5.68;;;2.13;;
71253;SDS011;59019;47.638;18.966;2024-02-23T00:40:21;5.30;;;2.30;;
71253;SDS011;59019;47.638;18.966;2024-02-23T00:42:48;5.73;;;2.30;;
71253;SDS011;59019;47.638;18.966;2024-02-23T00:45:15;5.10;;;2.15;;
71253;SDS011;59019;47.638;18.966;2024-02-23T00:47:45;5.25;;;2.25;;
71253;SDS011;59019;47.638;18.966;2024-02-23T00:50:12;4.45;;;2.22;;
71253;SDS011;59019;47.638;18.966;2024-02-23T00:52:39;5.30;;;2.35;;
71253;SDS011;59019;47.638;18.966;2024-02-23T00:55:06;4.40;;;2.10;;
71253;SDS011;59019;47.638;18.966;2024-02-23T00:57:37;14.52;;;7.60;;
71253;SDS011;59019;47.638;18.966;2024-02-23T01:00:04;5.13;;;2.30;;
71253;SDS011;59019;47.638;18.966;2024-02-23T01:02:34;5.63;;;2.65;;
71253;SDS011;59019;47.638;18.966;2024-02-23T01:05:00;4.57;;;2.30;;
71253;SDS011;59019;47.638;18.966;2024-02-23T01:07:27;4.73;;;2.40;;
71253;SDS011;59019;47.638;18.966;2024-02-23T01:09:54;4.70;;;2.27;;
71253;SDS011;59019;47.638;18.966;2024-02-23T01:12:20;5.35;;;2.38;;
71253;SDS011;59019;47.638;18.966;2024-02-23T01:14:47;5.75;;;2.10;;
71253;SDS011;59019;47.638;18.966;2024-02-23T01:17:14;4.50;;;2.30;;
71253;SDS011;59019;47.638;18.966;2024-02-23T01:19:41;5.53;;;2.53;;
71253;SDS011;59019;47.638;18.966;2024-02-23T01:22:08;4.57;;;2.30;;
71253;SDS011;59019;47.638;18.966;2024-02-23T01:24:34;5.30;;;2.40;;
71253;SDS011;59019;47.638;18.966;2024-02-23T01:27:00;5.13;;;2.22;;
71253;SDS011;59019;47.638;18.966;2024-02-23T01:29:26;5.80;;;2.58;;
71253;SDS011;59019;47.638;18.966;2024-02-23T01:31:53;5.80;;;2.55;;
71253;SDS011;59019;47.638;18.966;2024-02-23T01:34:20;5.43;;;2.38;;
71253;SDS011;59019;47.638;18.966;2024-02-23T01:36:47;6.63;;;2.53;;
71253;SDS011;59019;47.638;18.966;2024-02-23T01:39:16;5.37;;;2.50;;
71253;SDS011;59019;47.638;18.966;2024-02-23T01:41:43;4.83;;;2.67;;
71253;SDS011;59019;47.638;18.966;2024-02-23T01:44:10;5.40;;;2.78;;
71253;SDS011;59019;47.638;18.966;2024-02-23T01:46:36;6.05;;;2.70;;
71253;SDS011;59019;47.638;18.966;2024-02-23T01:49:02;5.38;;;2.58;;
71253;SDS011;59019;47.638;18.966;2024-02-23T01:51:31;5.03;;;2.60;;
71253;SDS011;59019;47.638;18.966;2024-02-23T01:54:01;6.32;;;2.67;;
71253;SDS011;59019;47.638;18.966;2024-02-23T01:56:28;5.07;;;2.70;;
71253;SDS011;59019;47.638;18.966;2024-02-23T01:58:55;5.85;;;2.70;;
71253;SDS011;59019;47.638;18.966;2024-02-23T02:01:21;5.57;;;2.50;;
71253;SDS011;59019;47.638;18.966;2024-02-23T02:03:48;5.70;;;2.87;;
71253;SDS011;59019;47.638;18.966;2024-02-23T02:06:13;5.18;;;2.90;;
71253;SDS011;59019;47.638;18.966;2024-02-23T02:08:40;5.28;;;2.70;;
71253;SDS011;59019;47.638;18.966;2024-02-23T02:11:06;5.70;;;2.88;;
71253;SDS011;59019;47.638;18.966;2024-02-23T02:13:33;5.90;;;3.13;;
71253;SDS011;59019;47.638;18.966;2024-02-23T02:16:00;5.93;;;2.90;;
71253;SDS011;59019;47.638;18.966;2024-02-23T02:18:27;6.10;;;2.70;;
71253;SDS011;59019;47.638;18.966;2024-02-23T02:20:56;5.90;;;2.83;;
71253;SDS011;59019;47.638;18.966;2024-02-23T02:23:24;6.80;;;2.90;;
71253;SDS011;59019;47.638;18.966;2024-02-23T02:25:55;6.10;;;3.10;;
71253;SDS011;59019;47.638;18.966;2024-02-23T02:28:22;5.40;;;2.90;;
71253;SDS011;59019;47.638;18.966;2024-02-23T02:30:49;5.78;;;2.85;;
71253;SDS011;59019;47.638;18.966;2024-02-23T02:33:16;5.85;;;3.00;;
71253;SDS011;59019;47.638;18.966;2024-02-23T02:35:43;5.53;;;2.80;;
71253;SDS011;59019;47.638;18.966;2024-02-23T02:38:10;5.35;;;2.80;;
71253;SDS011;59019;47.638;18.966;2024-02-23T02:40:36;6.97;;;3.08;;
71253;SDS011;59019;47.638;18.966;2024-02-23T02:43:03;6.40;;;2.95;;
71253;SDS011;59019;47.638;18.966;2024-02-23T02:45:31;6.53;;;3.13;;
71253;SDS011;59019;47.638;18.966;2024-02-23T02:47:59;5.07;;;2.70;;
71253;SDS011;59019;47.638;18.966;2024-02-23T02:50:29;5.38;;;2.85;;
71253;SDS011;59019;47.638;18.966;2024-02-23T02:52:56;6.45;;;2.85;;
71253;SDS011;59019;47.638;18.966;2024-02-23T02:55:21;7.00;;;2.97;;
71253;SDS011;59019;47.638;18.966;2024-02-23T02:57:48;6.20;;;3.05;;
71253;SDS011;59019;47.638;18.966;2024-02-23T03:00:14;5.20;;;2.70;;
71253;SDS011;59019;47.638;18.966;2024-02-23T03:02:40;6.68;;;3.03;;
71253;SDS011;59019;47.638;18.966;2024-02-23T03:05:06;6.28;;;3.20;;
71253;SDS011;59019;47.638;18.966;2024-02-23T03:07:32;6.90;;;3.30;;
71253;SDS011;59019;47.638;18.966;2024-02-23T03:09:59;6.90;;;3.20;;
71253;SDS011;59019;47.638;18.966;2024-02-23T03:12:25;6.80;;;3.50;;
71253;SDS011;59019;47.638;18.966;2024-02-23T03:14:51;6.18;;;3.20;;
71253;SDS011;59019;47.638;18.966;2024-02-23T03:17:18;8.10;;;3.40;;
71253;SDS011;59019;47.638;18.966;2024-02-23T03:19:44;5.20;;;3.00;;
71253;SDS011;59019;47.638;18.966;2024-02-23T03:22:10;6.50;;;3.30;;
71253;SDS011;59019;47.638;18.966;2024-02-23T03:24:37;7.28;;;3.53;;
71253;SDS011;59019;47.638;18.966;2024-02-23T03:27:03;7.45;;;3.47;;
71253;SDS011;59019;47.638;18.966;2024-02-23T03:29:30;6.45;;;3.50;;
71253;SDS011;59019;47.638;18.966;2024-02-23T03:31:57;6.82;;;3.78;;
71253;SDS011;59019;47.638;18.966;2024-02-23T03:34:24;6.57;;;3.37;;
71253;SDS011;59019;47.638;18.966;2024-02-23T03:36:50;6.53;;;3.47;;
71253;SDS011;59019;47.638;18.966;2024-02-23T03:39:17;7.10;;;3.67;;
71253;SDS011;59019;47.638;18.966;2024-02-23T03:41:43;6.10;;;3.55;;
71253;SDS011;59019;47.638;18.966;2024-02-23T03:44:10;6.97;;;3.60;;
71253;SDS011;59019;47.638;18.966;2024-02-23T03:46:36;7.00;;;3.80;;
71253;SDS011;59019;47.638;18.966;2024-02-23T03:49:03;6.82;;;3.90;;
71253;SDS011;59019;47.638;18.966;2024-02-23T03:51:29;7.10;;;3.70;;
71253;SDS011;59019;47.638;18.966;2024-02-23T03:54:01;8.55;;;3.90;;
71253;SDS011;59019;47.638;18.966;2024-02-23T03:56:28;7.10;;;4.20;;
71253;SDS011;59019;47.638;18.966;2024-02-23T03:58:55;8.13;;;3.95;;
71253;SDS011;59019;47.638;18.966;2024-02-23T04:01:21;7.38;;;3.80;;
71253;SDS011;59019;47.638;18.966;2024-02-23T04:03:47;7.77;;;3.80;;
71253;SDS011;59019;47.638;18.966;2024-02-23T04:06:13;6.90;;;4.10;;
71253;SDS011;59019;47.638;18.966;2024-02-23T04:08:40;7.07;;;4.30;;
71253;SDS011;59019;47.638;18.966;2024-02-23T04:11:06;8.02;;;4.43;;
71253;SDS011;59019;47.638;18.966;2024-02-23T04:13:32;6.57;;;3.90;;
71253;SDS011;59019;47.638;18.966;2024-02-23T04:16:00;6.93;;;4.10;;
71253;SDS011;59019;47.638;18.966;2024-02-23T04:18:27;7.72;;;4.20;;
71253;SDS011;59019;47.638;18.966;2024-02-23T04:20:53;7.45;;;4.20;;
71253;SDS011;59019;47.638;18.966;2024-02-23T04:23:20;6.93;;;3.90;;
71253;SDS011;59019;47.638;18.966;2024-02-23T04:25:46;7.57;;;4.10;;
71253;SDS011;59019;47.638;18.966;2024-02-23T04:28:13;6.93;;;3.95;;
71253;SDS011;59019;47.638;18.966;2024-02-23T04:30:39;7.28;;;4.07;;
71253;SDS011;59019;47.638;18.966;2024-02-23T04:33:05;7.30;;;3.97;;
71253;SDS011;59019;47.638;18.966;2024-02-23T04:35:32;7.28;;;3.72;;
71253;SDS011;59019;47.638;18.966;2024-02-23T04:37:59;7.00;;;3.70;;
71253;SDS011;59019;47.638;18.966;2024-02-23T04:40:25;6.35;;;3.40;;
71253;SDS011;59019;47.638;18.966;2024-02-23T04:42:52;7.82;;;3.60;;
71253;SDS011;59019;47.638;18.966;2024-02-23T04:45:18;7.20;;;3.90;;
71253;SDS011;59019;47.638;18.966;2024-02-23T04:47:45;6.85;;;3.50;;
71253;SDS011;59019;47.638;18.966;2024-02-23T04:50:13;6.15;;;3.55;;
71253;SDS011;59019;47.638;18.966;2024-02-23T04:52:40;6.45;;;3.58;;
71253;SDS011;59019;47.638;18.966;2024-02-23T04:55:06;5.93;;;3.47;;
71253;SDS011;59019;47.638;18.966;2024-02-23T04:57:36;6.65;;;3.45;;
71253;SDS011;59019;47.638;18.966;2024-02-23T05:00:03;6.70;;;3.72;;
71253;SDS011;59019;47.638;18.966;2024-02-23T05:02:33;7.40;;;3.60;;
71253;SDS011;59019;47.638;18.966;2024-02-23T05:05:03;6.40;;;3.85;;
71253;SDS011;59019;47.638;18.966;2024-02-23T05:07:33;6.28;;;3.38;;
71253;SDS011;59019;47.638;18.966;2024-02-23T05:09:59;6.27;;;3.43;;
71253;SDS011;59019;47.638;18.966;2024-02-23T05:12:25;7.00;;;3.20;;
71253;SDS011;59019;47.638;18.966;2024-02-23T05:14:51;5.95;;;3.30;;
71253;SDS011;59019;47.638;18.966;2024-02-23T05:17:22;5.68;;;3.13;;
71253;SDS011;59019;47.638;18.966;2024-02-23T05:19:48;5.82;;;2.70;;
71253;SDS011;59019;47.638;18.966;2024-02-23T05:22:15;5.57;;;2.65;;
71253;SDS011;59019;47.638;18.966;2024-02-23T05:24:42;5.30;;;2.40;;
71253;SDS011;59019;47.638;18.966;2024-02-23T05:27:09;4.72;;;2.28;;
71253;SDS011;59019;47.638;18.966;2024-02-23T05:29:36;5.15;;;2.20;;
71253;SDS011;59019;47.638;18.966;2024-02-23T05:32:02;4.65;;;2.30;;
71253;SDS011;59019;47.638;18.966;2024-02-23T05:34:29;4.63;;;2.20;;
71253;SDS011;59019;47.638;18.966;2024-02-23T05:36:56;4.45;;;2.00;;
71253;SDS011;59019;47.638;18.966;2024-02-23T05:39:22;4.60;;;2.00;;
71253;SDS011;59019;47.638;18.966;2024-02-23T05:41:48;4.40;;;2.20;;
71253;SDS011;59019;47.638;18.966;2024-02-23T05:44:15;5.53;;;2.75;;
71253;SDS011;59019;47.638;18.966;2024-02-23T05:46:45;5.75;;;2.50;;
71253;SDS011;59019;47.638;18.966;2024-02-23T05:49:12;7.10;;;3.70;;
71253;SDS011;59019;47.638;18.966;2024-02-23T05:51:38;4.93;;;2.45;;
71253;SDS011;59019;47.638;18.966;2024-02-23T05:54:05;5.40;;;2.50;;
71253;SDS011;59019;47.638;18.966;2024-02-23T05:56:31;3.88;;;1.80;;
71253;SDS011;59019;47.638;18.966;2024-02-23T05:58:57;4.20;;;1.65;;
71253;SDS011;59019;47.638;18.966;2024-02-23T06:01:23;4.88;;;1.60;;
71253;SDS011;59019;47.638;18.966;2024-02-23T06:03:49;5.63;;;2.40;;
71253;SDS011;59019;47.638;18.966;2024-02-23T06:06:16;3.45;;;1.45;;
71253;SDS011;59019;47.638;18.966;2024-02-23T06:08:42;4.20;;;1.60;;
71253;SDS011;59019;47.638;18.966;2024-02-23T06:11:09;4.05;;;1.75;;
71253;SDS011;59019;47.638;18.966;2024-02-23T06:13:36;6.00;;;1.50;;
71253;SDS011;59019;47.638;18.966;2024-02-23T06:16:02;3.70;;;1.45;;
71253;SDS011;59019;47.638;18.966;2024-02-23T06:18:30;3.58;;;1.20;;
71253;SDS011;59019;47.638;18.966;2024-02-23T06:20:57;3.40;;;1.00;;
71253;SDS011;59019;47.638;18.966;2024-02-23T06:23:23;2.67;;;0.90;;
71253;SDS011;59019;47.638;18.966;2024-02-23T06:25:50;3.50;;;1.50;;
71253;SDS011;59019;47.638;18.966;2024-02-23T06:28:17;3.40;;;1.30;;
71253;SDS011;59019;47.638;18.966;2024-02-23T06:30:43;3.42;;;1.13;;
71253;SDS011;59019;47.638;18.966;2024-02-23T06:33:10;3.30;;;1.02;;
71253;SDS011;59019;47.638;18.966;2024-02-23T06:35:36;3.50;;;1.20;;
71253;SDS011;59019;47.638;18.966;2024-02-23T06:38:02;2.60;;;0.80;;
71253;SDS011;59019;47.638;18.966;2024-02-23T06:40:30;3.47;;;0.90;;
71253;SDS011;59019;47.638;18.966;2024-02-23T06:42:57;2.70;;;0.93;;
71253;SDS011;59019;47.638;18.966;2024-02-23T06:45:23;3.40;;;0.90;;
71253;SDS011;59019;47.638;18.966;2024-02-23T06:47:51;2.80;;;0.90;;
71253;SDS011;59019;47.638;18.966;2024-02-23T06:50:17;3.58;;;1.00;;
71253;SDS011;59019;47.638;18.966;2024-02-23T06:52:43;4.00;;;0.90;;
71253;SDS011;59019;47.638;18.966;2024-02-23T06:55:10;3.17;;;1.10;;
71253;SDS011;59019;47.638;18.966;2024-02-23T06:57:36;3.13;;;1.10;;
71253;SDS011;59019;47.638;18.966;2024-02-23T07:00:03;3.15;;;1.00;;
71253;SDS011;59019;47.638;18.966;2024-02-23T07:02:33;3.42;;;1.20;;
71253;SDS011;59019;47.638;18.966;2024-02-23T07:05:02;4.43;;;1.27;;
71253;SDS011;59019;47.638;18.966;2024-02-23T07:07:32;3.38;;;1.23;;
71253;SDS011;59019;47.638;18.966;2024-02-23T07:10:01;4.18;;;1.70;;
71253;SDS011;59019;47.638;18.966;2024-02-23T07:12:29;5.50;;;1.70;;
71253;SDS011;59019;47.638;18.966;2024-02-23T07:14:55;5.05;;;1.73;;
71253;SDS011;59019;47.638;18.966;2024-02-23T07:17:21;4.60;;;2.00;;
71253;SDS011;59019;47.638;18.966;2024-02-23T07:19:48;4.78;;;2.10;;
71253;SDS011;59019;47.638;18.966;2024-02-23T07:22:16;4.88;;;2.20;;
71253;SDS011;59019;47.638;18.966;2024-02-23T07:24:45;5.53;;;2.20;;
71253;SDS011;59019;47.638;18.966;2024-02-23T07:27:12;4.80;;;2.00;;
71253;SDS011;59019;47.638;18.966;2024-02-23T07:29:38;3.92;;;1.85;;
71253;SDS011;59019;47.638;18.966;2024-02-23T07:32:04;4.72;;;2.10;;
71253;SDS011;59019;47.638;18.966;2024-02-23T07:34:32;4.57;;;2.08;;
71253;SDS011;59019;47.638;18.966;2024-02-23T07:36:58;4.63;;;2.00;;
71253;SDS011;59019;47.638;18.966;2024-02-23T07:39:24;4.50;;;1.98;;
71253;SDS011;59019;47.638;18.966;2024-02-23T07:41:51;4.90;;;2.00;;
71253;SDS011;59019;47.638;18.966;2024-02-23T07:44:17;4.40;;;1.85;;
71253;SDS011;59019;47.638;18.966;2024-02-23T07:46:44;4.10;;;1.80;;
71253;SDS011;59019;47.638;18.966;2024-02-23T07:49:10;4.53;;;1.80;;
71253;SDS011;59019;47.638;18.966;2024-02-23T07:51:36;5.20;;;1.90;;
71253;SDS011;59019;47.638;18.966;2024-02-23T07:54:02;3.90;;;1.70;;
71253;SDS011;59019;47.638;18.966;2024-02-23T07:56:29;4.43;;;1.75;;
71253;SDS011;59019;47.638;18.966;2024-02-23T07:58:55;5.60;;;2.30;;
71253;SDS011;59019;47.638;18.966;2024-02-23T08:01:22;4.67;;;2.00;;
71253;SDS011;59019;47.638;18.966;2024-02-23T08:03:49;3.90;;;1.60;;
71253;SDS011;59019;47.638;18.966;2024-02-23T08:06:16;4.55;;;1.60;;
71253;SDS011;59019;47.638;18.966;2024-02-23T08:08:42;4.50;;;1.80;;
71253;SDS011;59019;47.638;18.966;2024-02-23T08:11:09;4.40;;;1.30;;
71253;SDS011;59019;47.638;18.966;2024-02-23T08:13:35;4.53;;;1.27;;
71253;SDS011;59019;47.638;18.966;2024-02-23T08:16:01;3.42;;;1.38;;
71253;SDS011;59019;47.638;18.966;2024-02-23T08:18:29;3.63;;;1.20;;
71253;SDS011;59019;47.638;18.966;2024-02-23T08:20:55;3.55;;;1.13;;
71253;SDS011;59019;47.638;18.966;2024-02-23T08:23:21;3.30;;;1.10;;
71253;SDS011;59019;47.638;18.966;2024-02-23T08:25:48;3.40;;;1.15;;
71253;SDS011;59019;47.638;18.966;2024-02-23T08:28:15;3.67;;;1.20;;
71253;SDS011;59019;47.638;18.966;2024-02-23T08:30:42;3.50;;;1.25;;
71253;SDS011;59019;47.638;18.966;2024-02-23T08:33:09;3.38;;;1.20;;
71253;SDS011;59019;47.638;18.966;2024-02-23T08:35:35;3.25;;;1.30;;
71253;SDS011;59019;47.638;18.966;2024-02-23T08:38:01;3.58;;;1.17;;
71253;SDS011;59019;47.638;18.966;2024-02-23T08:40:29;4.00;;;1.23;;
71253;SDS011;59019;47.638;18.966;2024-02-23T08:42:56;3.38;;;1.40;;
71253;SDS011;59019;47.638;18.966;2024-02-23T08:45:23;3.22;;;1.10;;
71253;SDS011;59019;47.638;18.966;2024-02-23T08:47:49;3.00;;;1.10;;
71253;SDS011;59019;47.638;18.966;2024-02-23T08:50:16;3.13;;;1.23;;
71253;SDS011;59019;47.638;18.966;2024-02-23T08:52:46;4.10;;;1.20;;
71253;SDS011;59019;47.638;18.966;2024-02-23T08:55:12;3.28;;;1.10;;
71253;SDS011;59019;47.638;18.966;2024-02-23T08:57:38;3.40;;;1.10;;
71253;SDS011;59019;47.638;18.966;2024-02-23T09:00:05;2.83;;;1.02;;
71253;SDS011;59019;47.638;18.966;2024-02-23T09:02:34;3.33;;;1.10;;
71253;SDS011;59019;47.638;18.966;2024-02-23T09:05:03;2.85;;;0.90;;
71253;SDS011;59019;47.638;18.966;2024-02-23T09:07:31;2.90;;;1.00;;
71253;SDS011;59019;47.638;18.966;2024-02-23T09:09:58;3.15;;;1.25;;
71253;SDS011;59019;47.638;18.966;2024-02-23T09:12:25;3.08;;;1.10;;
71253;SDS011;59019;47.638;18.966;2024-02-23T09:14:52;3.15;;;0.90;;
71253;SDS011;59019;47.638;18.966;2024-02-23T09:17:18;3.28;;;1.15;;
71253;SDS011;59019;47.638;18.966;2024-02-23T09:19:46;3.87;;;1.20;;
71253;SDS011;59019;47.638;18.966;2024-02-23T09:22:13;3.23;;;1.13;;
71253;SDS011;59019;47.638;18.966;2024-02-23T09:24:41;3.50;;;1.30;;
71253;SDS011;59019;47.638;18.966;2024-02-23T09:27:07;4.30;;;1.20;;
71253;SDS011;59019;47.638;18.966;2024-02-23T09:29:34;4.05;;;1.35;;
71253;SDS011;59019;47.638;18.966;2024-02-23T09:32:00;4.35;;;1.50;;
71253;SDS011;59019;47.638;18.966;2024-02-23T09:34:26;3.55;;;1.30;;
71253;SDS011;59019;47.638;18.966;2024-02-23T09:36:54;3.88;;;1.45;;
71253;SDS011;59019;47.638;18.966;2024-02-23T09:39:21;3.25;;;1.20;;
71253;SDS011;59019;47.638;18.966;2024-02-23T09:41:50;3.65;;;1.10;;
71253;SDS011;59019;47.638;18.966;2024-02-23T09:44:17;3.28;;;1.30;;
71253;SDS011;59019;47.638;18.966;2024-02-23T09:46:46;5.22;;;1.40;;
71253;SDS011;59019;47.638;18.966;2024-02-23T09:49:17;3.50;;;1.40;;
71253;SDS011;59019;47.638;18.966;2024-02-23T09:51:43;3.90;;;1.30;;
71253;SDS011;59019;47.638;18.966;2024-02-23T09:54:13;3.70;;;1.10;;
71253;SDS011;59019;47.638;18.966;2024-02-23T09:56:40;3.22;;;1.20;;
71253;SDS011;59019;47.638;18.966;2024-02-23T09:59:11;4.30;;;1.50;;
71253;SDS011;59019;47.638;18.966;2024-02-23T10:01:38;3.20;;;1.30;;
71253;SDS011;59019;47.638;18.966;2024-02-23T10:04:04;3.83;;;1.58;;
71253;SDS011;59019;47.638;18.966;2024-02-23T10:06:32;3.63;;;1.33;;
71253;SDS011;59019;47.638;18.966;2024-02-23T10:08:58;3.30;;;1.20;;
71253;SDS011;59019;47.638;18.966;2024-02-23T10:11:24;3.63;;;1.30;;
71253;SDS011;59019;47.638;18.966;2024-02-23T10:13:51;3.97;;;1.40;;
71253;SDS011;59019;47.638;18.966;2024-02-23T10:16:18;3.30;;;1.20;;
71253;SDS011;59019;47.638;18.966;2024-02-23T10:18:48;3.60;;;1.40;;
71253;SDS011;59019;47.638;18.966;2024-02-23T10:21:19;3.70;;;1.52;;
71253;SDS011;59019;47.638;18.966;2024-02-23T10:23:45;3.67;;;1.30;;
71253;SDS011;59019;47.638;18.966;2024-02-23T10:26:13;4.60;;;1.73;;
71253;SDS011;59019;47.638;18.966;2024-02-23T10:28:45;6.00;;;3.28;;
71253;SDS011;59019;47.638;18.966;2024-02-23T10:31:32;5.78;;;2.65;;
71253;SDS011;59019;47.638;18.966;2024-02-23T10:34:06;4.57;;;2.08;;
71253;SDS011;59019;47.638;18.966;2024-02-23T10:36:41;4.60;;;1.60;;
71253;SDS011;59019;47.638;18.966;2024-02-23T10:39:08;6.07;;;5.00;;
71253;SDS011;59019;47.638;18.966;2024-02-23T10:41:35;4.68;;;3.33;;
71253;SDS011;59019;47.638;18.966;2024-02-23T10:44:21;3.70;;;1.60;;
71253;SDS011;59019;47.638;18.966;2024-02-23T10:46:51;3.03;;;1.20;;
71253;SDS011;59019;47.638;18.966;2024-02-23T10:49:18;3.60;;;1.10;;
71253;SDS011;59019;47.638;18.966;2024-02-23T10:51:47;3.35;;;1.42;;
71253;SDS011;59019;47.638;18.966;2024-02-23T10:54:14;3.53;;;1.30;;
71253;SDS011;59019;47.638;18.966;2024-02-23T10:56:48;3.85;;;1.40;;
71253;SDS011;59019;47.638;18.966;2024-02-23T10:59:20;3.60;;;1.40;;
71253;SDS011;59019;47.638;18.966;2024-02-23T11:01:48;3.85;;;1.40;;
71253;SDS011;59019;47.638;18.966;2024-02-23T11:04:17;3.97;;;1.40;;
71253;SDS011;59019;47.638;18.966;2024-02-23T11:06:51;3.60;;;1.60;;
71253;SDS011;59019;47.638;18.966;2024-02-23T11:09:20;3.40;;;1.40;;
71253;SDS011;59019;47.638;18.966;2024-02-23T11:11:54;3.67;;;1.30;;
71253;SDS011;59019;47.638;18.966;2024-02-23T11:14:37;3.50;;;1.30;;
71253;SDS011;59019;47.638;18.966;2024-02-23T11:17:04;3.83;;;1.20;;
71253;SDS011;59019;47.638;18.966;2024-02-23T11:19:38;3.80;;;1.40;;
71253;SDS011;59019;47.638;18.966;2024-02-23T11:22:09;4.40;;;1.93;;
71253;SDS011;59019;47.638;18.966;2024-02-23T11:24:35;5.28;;;2.67;;
71253;SDS011;59019;47.638;18.966;2024-02-23T11:27:12;4.53;;;2.00;;
71253;SDS011;59019;47.638;18.966;2024-02-23T11:29:42;4.05;;;1.70;;
71253;SDS011;59019;47.638;18.966;2024-02-23T11:32:12;3.67;;;1.60;;
71253;SDS011;59019;47.638;18.966;2024-02-23T11:34:40;4.00;;;1.70;;
71253;SDS011;59019;47.638;18.966;2024-02-23T11:37:09;4.20;;;1.80;;
71253;SDS011;59019;47.638;18.966;2024-02-23T11:39:39;4.20;;;1.50;;
71253;SDS011;59019;47.638;18.966;2024-02-23T11:42:06;3.70;;;1.50;;
71253;SDS011;59019;47.638;18.966;2024-02-23T11:44:32;4.03;;;1.80;;
71253;SDS011;59019;47.638;18.966;2024-02-23T11:47:01;3.85;;;1.50;;
71253;SDS011;59019;47.638;18.966;2024-02-23T11:49:28;4.73;;;1.90;;
71253;SDS011;59019;47.638;18.966;2024-02-23T11:51:55;4.03;;;1.60;;
71253;SDS011;59019;47.638;18.966;2024-02-23T11:54:23;3.67;;;1.55;;
71253;SDS011;59019;47.638;18.966;2024-02-23T11:56:49;6.15;;;3.08;;
71253;SDS011;59019;47.638;18.966;2024-02-23T11:59:20;4.20;;;1.52;;
71253;SDS011;59019;47.638;18.966;2024-02-23T12:02:09;4.87;;;1.50;;
71253;SDS011;59019;47.638;18.966;2024-02-23T12:04:35;3.87;;;1.50;;
71253;SDS011;59019;47.638;18.966;2024-02-23T12:07:02;3.17;;;1.30;;
71253;SDS011;59019;47.638;18.966;2024-02-23T12:09:29;4.63;;;1.70;;
71253;SDS011;59019;47.638;18.966;2024-02-23T12:11:56;4.20;;;1.60;;
71253;SDS011;59019;47.638;18.966;2024-02-23T12:14:22;3.35;;;1.48;;
71253;SDS011;59019;47.638;18.966;2024-02-23T12:16:49;3.60;;;1.33;;
71253;SDS011;59019;47.638;18.966;2024-02-23T12:19:17;5.97;;;3.00;;
71253;SDS011;59019;47.638;18.966;2024-02-23T12:21:47;7.57;;;4.13;;
71253;SDS011;59019;47.638;18.966;2024-02-23T12:24:14;8.90;;;5.45;;
71253;SDS011;59019;47.638;18.966;2024-02-23T12:26:40;7.28;;;3.70;;
71253;SDS011;59019;47.638;18.966;2024-02-23T12:29:06;11.07;;;6.70;;
71253;SDS011;59019;47.638;18.966;2024-02-23T12:31:35;7.35;;;3.90;;
71253;SDS011;59019;47.638;18.966;2024-02-23T12:34:01;12.82;;;6.72;;
71253;SDS011;59019;47.638;18.966;2024-02-23T12:36:32;12.52;;;7.40;;
71253;SDS011;59019;47.638;18.966;2024-02-23T12:39:02;6.93;;;3.80;;
71253;SDS011;59019;47.638;18.966;2024-02-23T12:41:29;7.25;;;3.90;;
71253;SDS011;59019;47.638;18.966;2024-02-23T12:43:55;5.47;;;2.72;;
71253;SDS011;59019;47.638;18.966;2024-02-23T12:46:21;5.55;;;2.78;;
71253;SDS011;59019;47.638;18.966;2024-02-23T12:48:52;5.80;;;2.85;;
71253;SDS011;59019;47.638;18.966;2024-02-23T12:51:18;5.47;;;2.60;;
71253;SDS011;59019;47.638;18.966;2024-02-23T12:53:44;6.30;;;3.35;;
71253;SDS011;59019;47.638;18.966;2024-02-23T12:56:12;5.15;;;2.20;;
71253;SDS011;59019;47.638;18.966;2024-02-23T12:58:44;5.13;;;2.45;;
71253;SDS011;59019;47.638;18.966;2024-02-23T13:01:10;4.63;;;2.40;;
71253;SDS011;59019;47.638;18.966;2024-02-23T13:03:37;9.32;;;7.80;;
71253;SDS011;59019;47.638;18.966;2024-02-23T13:06:06;7.60;;;4.97;;
71253;SDS011;59019;47.638;18.966;2024-02-23T13:08:32;6.05;;;3.17;;
71253;SDS011;59019;47.638;18.966;2024-02-23T13:10:59;5.32;;;2.38;;
71253;SDS011;59019;47.638;18.966;2024-02-23T13:13:26;6.13;;;2.83;;
71253;SDS011;59019;47.638;18.966;2024-02-23T13:15:53;18.13;;;10.60;;
71253;SDS011;59019;47.638;18.966;2024-02-23T13:18:20;19.40;;;11.35;;
71253;SDS011;59019;47.638;18.966;2024-02-23T13:20:46;11.83;;;7.30;;
71253;SDS011;59019;47.638;18.966;2024-02-23T13:23:12;5.70;;;3.20;;
71253;SDS011;59019;47.638;18.966;2024-02-23T13:25:38;6.00;;;2.85;;
71253;SDS011;59019;47.638;18.966;2024-02-23T13:28:05;7.10;;;3.83;;
71253;SDS011;59019;47.638;18.966;2024-02-23T13:30:32;7.07;;;3.90;;
71253;SDS011;59019;47.638;18.966;2024-02-23T13:32:59;7.50;;;4.13;;
71253;SDS011;59019;47.638;18.966;2024-02-23T13:35:28;5.00;;;2.70;;
71253;SDS011;59019;47.638;18.966;2024-02-23T13:37:55;10.93;;;6.32;;
71253;SDS011;59019;47.638;18.966;2024-02-23T13:40:22;9.63;;;5.40;;
71253;SDS011;59019;47.638;18.966;2024-02-23T13:42:49;10.77;;;5.97;;
71253;SDS011;59019;47.638;18.966;2024-02-23T13:45:16;11.10;;;6.10;;
71253;SDS011;59019;47.638;18.966;2024-02-23T13:47:43;11.73;;;8.38;;
71253;SDS011;59019;47.638;18.966;2024-02-23T13:50:21;13.13;;;8.70;;
71253;SDS011;59019;47.638;18.966;2024-02-23T13:52:47;9.73;;;5.20;;
71253;SDS011;59019;47.638;18.966;2024-02-23T13:55:13;7.00;;;4.30;;
71253;SDS011;59019;47.638;18.966;2024-02-23T13:57:40;15.32;;;8.55;;
71253;SDS011;59019;47.638;18.966;2024-02-23T14:00:06;17.10;;;10.20;;
71253;SDS011;59019;47.638;18.966;2024-02-23T14:02:38;15.97;;;9.20;;
71253;SDS011;59019;47.638;18.966;2024-02-23T14:05:06;12.05;;;7.13;;
71253;SDS011;59019;47.638;18.966;2024-02-23T14:07:33;12.27;;;6.25;;
71253;SDS011;59019;47.638;18.966;2024-02-23T14:09:59;6.65;;;3.85;;
71253;SDS011;59019;47.638;18.966;2024-02-23T14:12:27;8.57;;;4.57;;
71253;SDS011;59019;47.638;18.966;2024-02-23T14:14:54;7.55;;;4.13;;
71253;SDS011;59019;47.638;18.966;2024-02-23T14:17:20;7.38;;;4.30;;
71253;SDS011;59019;47.638;18.966;2024-02-23T14:19:47;8.20;;;4.63;;
71253;SDS011;59019;47.638;18.966;2024-02-23T14:22:13;11.68;;;8.82;;
71253;SDS011;59019;47.638;18.966;2024-02-23T14:24:39;12.33;;;10.00;;
71253;SDS011;59019;47.638;18.966;2024-02-23T14:27:09;10.02;;;8.35;;
71253;SDS011;59019;47.638;18.966;2024-02-23T14:29:36;9.88;;;7.10;;
71253;SDS011;59019;47.638;18.966;2024-02-23T14:32:02;10.88;;;7.10;;
71253;SDS011;59019;47.638;18.966;2024-02-23T14:34:30;10.93;;;6.15;;